createdAt,value
2018-04-22T00:02:11.999Z,27.80
2018-04-22T00:04:38.895Z,27.80
2018-04-22T00:07:06.047Z,26.03
2018-04-22T00:09:34.039Z,27.93
2018-04-22T00:12:01.166Z,26.67
2018-04-22T00:14:28.723Z,25.23
2018-04-22T00:16:55.805Z,25.93
2018-04-22T00:19:24.236Z,26.87
2018-04-22T00:21:51.255Z,26.83
2018-04-22T00:24:18.680Z,28.63
2018-04-22T00:26:45.955Z,24.90
2018-04-22T00:29:14.237Z,26.93
2018-04-22T00:31:41.998Z,26.07
2018-04-22T00:34:09.572Z,24.70
2018-04-22T00:36:36.268Z,27.10
2018-04-22T00:39:03.400Z,26.00
2018-04-22T00:41:30.965Z,27.20
2018-04-22T00:43:58.582Z,26.70
2018-04-22T00:46:25.908Z,25.90
2018-04-22T00:48:53.475Z,26.90
2018-04-22T00:51:20.335Z,25.90
2018-04-22T00:53:53.050Z,26.67
2018-04-22T00:56:19.979Z,27.47
2018-04-22T00:58:46.748Z,27.43
2018-04-22T01:01:13.753Z,29.07
2018-04-22T01:03:40.629Z,27.03
2018-04-22T01:06:07.370Z,27.57
2018-04-22T01:08:36.105Z,28.27
2018-04-22T01:11:02.978Z,26.37
2018-04-22T01:13:31.644Z,30.23
2018-04-22T01:15:59.686Z,29.80
2018-04-22T01:18:26.532Z,28.40
2018-04-22T01:20:53.740Z,28.40
2018-04-22T01:23:22.207Z,27.90
2018-04-22T01:25:49.250Z,28.40
2018-04-22T01:28:17.362Z,29.60
2018-04-22T01:30:44.188Z,28.13
2018-04-22T01:33:12.207Z,29.27
2018-04-22T01:35:39.494Z,29.97
2018-04-22T01:38:06.615Z,31.77
2018-04-22T01:40:34.626Z,32.43
2018-04-22T01:43:01.892Z,31.50
2018-04-22T01:45:29.689Z,31.40
2018-04-22T01:47:56.673Z,31.43
2018-04-22T01:50:25.947Z,30.80
2018-04-22T01:52:53.024Z,30.40
2018-04-22T01:55:19.912Z,31.20
2018-04-22T01:57:50.057Z,30.20
2018-04-22T02:00:16.906Z,31.57
2018-04-22T02:02:45.122Z,30.43
2018-04-22T02:05:12.411Z,30.63
2018-04-22T02:07:40.173Z,32.07
2018-04-22T02:10:08.093Z,30.90
2018-04-22T02:12:35.898Z,30.97
2018-04-22T02:15:02.877Z,31.17
2018-04-22T02:17:30.152Z,30.07
2018-04-22T02:19:59.260Z,30.83
2018-04-22T02:22:26.214Z,31.00
2018-04-22T02:24:54.245Z,31.93
2018-04-22T02:27:21.721Z,31.93
2018-04-22T02:29:49.788Z,31.93
2018-04-22T02:32:17.297Z,30.50
2018-04-22T02:34:44.193Z,30.83
2018-04-22T02:37:11.384Z,30.90
2018-04-22T02:39:39.163Z,29.40
2018-04-22T02:42:06.638Z,31.20
2018-04-22T02:44:33.889Z,32.40
2018-04-22T02:47:01.777Z,32.37
2018-04-22T02:49:28.918Z,31.60
2018-04-22T02:51:57.401Z,32.33
2018-04-22T02:54:25.634Z,31.80
2018-04-22T02:56:53.588Z,31.90
2018-04-22T02:59:20.776Z,30.43
2018-04-22T03:01:48.010Z,31.33
2018-04-22T03:04:14.916Z,31.13
2018-04-22T03:06:43.091Z,33.00
2018-04-22T03:09:09.885Z,34.23
2018-04-22T03:11:36.706Z,31.80
2018-04-22T03:14:04.787Z,32.47
2018-04-22T03:16:33.898Z,34.10
2018-04-22T03:19:00.837Z,35.07
2018-04-22T03:21:27.626Z,33.10
2018-04-22T03:23:54.763Z,32.17
2018-04-22T03:26:21.848Z,35.37
2018-04-22T03:28:48.567Z,34.93
2018-04-22T03:31:15.375Z,33.30
2018-04-22T03:33:42.389Z,34.10
2018-04-22T03:36:11.017Z,33.67
2018-04-22T03:38:37.763Z,32.07
2018-04-22T03:41:04.995Z,32.77
2018-04-22T03:43:32.038Z,33.33
2018-04-22T03:45:59.259Z,35.07
2018-04-22T03:48:26.170Z,34.80
2018-04-22T03:50:53.018Z,34.30
2018-04-22T03:53:20.896Z,36.17
2018-04-22T03:55:47.698Z,35.10
2018-04-22T03:58:14.967Z,34.83
2018-04-22T04:00:41.880Z,37.17
2018-04-22T04:03:09.698Z,36.07
2018-04-22T04:05:37.429Z,36.37
2018-04-22T04:08:04.155Z,36.13
2018-04-22T04:10:31.003Z,36.70
2018-04-22T04:13:01.598Z,36.30
2018-04-22T04:15:28.586Z,35.90
2018-04-22T04:18:01.726Z,36.97
2018-04-22T04:20:35.500Z,35.57
2018-04-22T04:23:03.046Z,37.50
2018-04-22T04:25:37.930Z,36.03
2018-04-22T04:28:04.775Z,36.20
2018-04-22T04:30:32.969Z,36.07
2018-04-22T04:33:00.733Z,35.60
2018-04-22T04:35:28.213Z,36.10
2018-04-22T04:37:55.516Z,36.00
2018-04-22T04:40:22.770Z,36.40
2018-04-22T04:42:50.852Z,36.37
2018-04-22T04:45:18.327Z,35.10
2018-04-22T04:47:45.138Z,33.70
2018-04-22T04:50:12.360Z,34.53
2018-04-22T04:52:39.318Z,35.00
2018-04-22T04:55:06.126Z,34.33
2018-04-22T04:57:34.455Z,33.93
2018-04-22T05:00:02.649Z,36.30
2018-04-22T05:02:30.966Z,34.63
2018-04-22T05:04:58.856Z,34.53
2018-04-22T05:07:27.270Z,34.67
2018-04-22T05:09:54.126Z,35.07
2018-04-22T05:12:21.000Z,34.50
2018-04-22T05:14:48.096Z,33.67
2018-04-22T05:17:14.803Z,34.63
2018-04-22T05:19:41.690Z,32.80
2018-04-22T05:22:09.147Z,34.03
2018-04-22T05:24:35.950Z,34.70
2018-04-22T05:27:03.202Z,33.43
2018-04-22T05:29:30.461Z,35.93
2018-04-22T05:31:57.758Z,35.00
2018-04-22T05:34:24.592Z,34.63
2018-04-22T05:36:51.543Z,33.13
2018-04-22T05:39:19.857Z,32.70
2018-04-22T05:41:46.621Z,31.37
2018-04-22T05:44:14.617Z,31.60
2018-04-22T05:46:41.581Z,31.03
2018-04-22T05:49:08.514Z,30.60
2018-04-22T05:51:36.520Z,31.80
2018-04-22T05:54:04.711Z,31.70
2018-04-22T05:56:31.376Z,33.93
2018-04-22T05:58:58.451Z,31.47
2018-04-22T06:01:25.330Z,34.67
2018-04-22T06:03:55.976Z,32.80
2018-04-22T06:06:22.898Z,31.93
2018-04-22T06:08:49.861Z,31.47
2018-04-22T06:11:17.141Z,30.53
2018-04-22T06:13:43.916Z,31.07
2018-04-22T06:16:10.532Z,30.97
2018-04-22T06:18:37.314Z,31.10
2018-04-22T06:21:04.776Z,30.10
2018-04-22T06:23:31.613Z,30.63
2018-04-22T06:25:59.351Z,29.73
2018-04-22T06:28:26.976Z,29.27
2018-04-22T06:30:57.747Z,30.27
2018-04-22T06:33:27.901Z,27.83
2018-04-22T06:35:54.795Z,27.40
2018-04-22T06:38:22.273Z,28.80
2018-04-22T06:40:49.087Z,28.63
2018-04-22T06:43:15.814Z,25.00
2018-04-22T06:45:45.802Z,26.73
2018-04-22T06:48:13.137Z,25.70
2018-04-22T06:50:40.139Z,27.40
2018-04-22T06:53:07.192Z,26.37
2018-04-22T06:55:33.902Z,26.00
2018-04-22T06:58:00.783Z,25.87
2018-04-22T07:00:27.809Z,26.20
2018-04-22T07:02:54.589Z,23.97
2018-04-22T07:05:23.579Z,25.90
2018-04-22T07:07:50.830Z,24.33
2018-04-22T07:10:17.653Z,25.10
2018-04-22T07:12:45.080Z,26.60
2018-04-22T07:15:12.083Z,27.83
2018-04-22T07:17:39.022Z,27.67
2018-04-22T07:20:06.071Z,28.60
2018-04-22T07:22:32.868Z,28.00
2018-04-22T07:25:00.323Z,26.57
2018-04-22T07:27:27.431Z,26.70
2018-04-22T07:29:54.695Z,26.93
2018-04-22T07:32:21.541Z,27.57
2018-04-22T07:34:48.421Z,27.93
2018-04-22T07:37:16.081Z,28.57
2018-04-22T07:39:43.224Z,27.17
2018-04-22T07:42:10.600Z,24.50
2018-04-22T07:44:38.208Z,24.60
2018-04-22T07:47:04.965Z,25.77
2018-04-22T07:49:31.556Z,25.27
2018-04-22T07:51:59.256Z,25.00
2018-04-22T07:54:26.049Z,24.77
2018-04-22T07:56:53.653Z,25.07
2018-04-22T07:59:20.384Z,24.53
2018-04-22T08:01:47.124Z,23.87
2018-04-22T08:04:13.843Z,24.33
2018-04-22T08:06:40.501Z,26.30
2018-04-22T08:09:07.148Z,25.13
2018-04-22T08:11:33.758Z,23.53
2018-04-22T08:14:00.392Z,25.07
2018-04-22T08:16:27.028Z,24.83
2018-04-22T08:18:53.700Z,24.57
2018-04-22T08:21:20.358Z,25.10
2018-04-22T08:23:47.043Z,23.40
2018-04-22T08:26:13.691Z,24.13
2018-04-22T08:28:40.327Z,24.43
2018-04-22T08:31:06.931Z,22.93
2018-04-22T08:33:33.587Z,24.10
2018-04-22T08:36:00.220Z,22.67
2018-04-22T08:38:26.843Z,24.43
2018-04-22T08:40:53.492Z,23.33
2018-04-22T08:43:20.158Z,21.43
2018-04-22T08:45:46.776Z,22.40
2018-04-22T08:48:13.386Z,22.57
2018-04-22T08:50:40.059Z,22.80
2018-04-22T08:53:06.772Z,20.67
2018-04-22T08:55:33.413Z,19.60
2018-04-22T08:58:00.082Z,20.67
2018-04-22T09:00:26.739Z,20.03
2018-04-22T09:02:53.385Z,20.80
2018-04-22T09:05:20.033Z,19.10
2018-04-22T09:07:46.648Z,18.60
2018-04-22T09:10:13.292Z,17.40
2018-04-22T09:12:39.911Z,18.30
2018-04-22T09:15:06.519Z,17.33
2018-04-22T09:17:33.223Z,18.57
2018-04-22T09:19:59.886Z,18.60
2018-04-22T09:22:26.554Z,18.20
2018-04-22T09:24:53.512Z,16.87
2018-04-22T09:27:20.480Z,17.30
2018-04-22T09:29:47.145Z,15.70
2018-04-22T09:32:13.805Z,16.97
2018-04-22T09:34:40.456Z,15.40
2018-04-22T09:37:07.164Z,14.67
2018-04-22T09:39:33.900Z,16.87
2018-04-22T09:42:00.538Z,15.60
2018-04-22T09:44:27.204Z,15.30
2018-04-22T09:46:53.923Z,15.83
2018-04-22T09:49:20.550Z,15.13
2018-04-22T09:51:47.224Z,15.13
2018-04-22T09:54:13.856Z,13.93
2018-04-22T09:56:40.491Z,13.33
2018-04-22T09:59:07.163Z,13.10
2018-04-22T10:01:36.754Z,12.27
2018-04-22T10:04:03.479Z,11.33
2018-04-22T10:06:30.067Z,11.40
2018-04-22T10:08:56.772Z,11.30
2018-04-22T10:11:23.430Z,11.20
2018-04-22T10:13:50.049Z,9.90
2018-04-22T10:16:16.676Z,9.20
2018-04-22T10:18:43.335Z,10.20
2018-04-22T10:21:09.953Z,9.40
2018-04-22T10:23:36.633Z,10.00
2018-04-22T10:26:03.220Z,9.97
2018-04-22T10:28:29.870Z,10.13
2018-04-22T10:30:56.523Z,9.03
2018-04-22T10:33:23.217Z,9.93
2018-04-22T10:35:49.831Z,9.97
2018-04-22T10:38:16.478Z,10.90
2018-04-22T10:40:43.158Z,10.40
2018-04-22T10:43:09.849Z,9.13
2018-04-22T10:45:36.787Z,9.23
2018-04-22T10:48:03.430Z,9.47
2018-04-22T10:50:30.055Z,11.67
2018-04-22T10:52:56.666Z,11.10
2018-04-22T10:55:23.290Z,10.00
2018-04-22T10:57:49.994Z,9.70
2018-04-22T11:00:16.606Z,10.40
2018-04-22T11:02:43.214Z,9.10
2018-04-22T11:05:09.892Z,10.30
2018-04-22T11:07:36.482Z,9.40
2018-04-22T11:10:03.097Z,9.93
2018-04-22T11:12:29.752Z,8.40
2018-04-22T11:14:56.398Z,8.37
2018-04-22T11:17:23.009Z,9.00
2018-04-22T11:19:49.622Z,9.67
2018-04-22T11:22:16.202Z,7.57
2018-04-22T11:24:42.797Z,8.17
2018-04-22T11:27:09.423Z,7.77
2018-04-22T11:29:36.309Z,8.40
2018-04-22T11:32:03.040Z,9.97
2018-04-22T11:34:29.636Z,9.10
2018-04-22T11:36:56.261Z,8.63
2018-04-22T11:39:22.906Z,9.50
2018-04-22T11:41:49.565Z,8.63
2018-04-22T11:44:16.159Z,9.10
2018-04-22T11:46:42.788Z,9.70
2018-04-22T11:49:09.396Z,8.97
2018-04-22T11:51:36.022Z,8.00
2018-04-22T11:54:02.629Z,9.03
2018-04-22T11:56:29.258Z,9.53
2018-04-22T11:58:55.884Z,11.80
2018-04-22T12:01:22.500Z,8.33
2018-04-22T12:03:49.147Z,10.90
2018-04-22T12:06:15.732Z,8.73
2018-04-22T12:08:42.339Z,9.43
2018-04-22T12:11:08.954Z,8.70
2018-04-22T12:13:35.566Z,11.83
2018-04-22T12:16:02.204Z,7.97
2018-04-22T12:18:28.814Z,8.00
2018-04-22T12:20:55.488Z,8.13
2018-04-22T12:23:22.155Z,7.80
2018-04-22T12:25:48.765Z,8.30
2018-04-22T12:28:15.390Z,7.77
2018-04-22T12:30:42.012Z,8.47
2018-04-22T12:33:08.644Z,7.33
2018-04-22T12:35:35.226Z,7.80
2018-04-22T12:38:01.978Z,6.93
2018-04-22T12:40:28.586Z,8.20
2018-04-22T12:42:55.560Z,7.50
2018-04-22T12:45:22.298Z,7.27
2018-04-22T12:47:48.975Z,7.00
2018-04-22T12:50:15.556Z,7.80
2018-04-22T12:52:42.185Z,6.13
2018-04-22T12:55:08.777Z,5.90
2018-04-22T12:57:35.481Z,6.47
2018-04-22T13:00:02.126Z,6.43
2018-04-22T13:02:28.996Z,6.10
2018-04-22T13:04:55.623Z,5.90
2018-04-22T13:07:22.327Z,5.63
2018-04-22T13:09:48.912Z,6.60
2018-04-22T13:12:15.551Z,6.03
2018-04-22T13:14:42.189Z,6.70
2018-04-22T13:17:09.148Z,4.93
2018-04-22T13:19:35.775Z,5.73
2018-04-22T13:22:02.823Z,4.47
2018-04-22T13:24:29.517Z,4.37
2018-04-22T13:26:56.102Z,4.57
2018-04-22T13:29:22.710Z,4.40
2018-04-22T13:31:49.303Z,4.60
2018-04-22T13:34:15.953Z,4.43
2018-04-22T13:36:42.548Z,5.03
2018-04-22T13:39:09.169Z,4.60
2018-04-22T13:41:36.345Z,5.60
2018-04-22T13:44:03.509Z,3.97
2018-04-22T13:46:30.085Z,3.60
2018-04-22T13:48:56.702Z,3.93
2018-04-22T13:51:23.319Z,3.77
2018-04-22T13:53:49.937Z,3.73
2018-04-22T13:56:16.548Z,3.90
2018-04-22T13:58:43.146Z,3.60
2018-04-22T14:01:10.807Z,3.73
2018-04-22T14:03:37.590Z,4.10
2018-04-22T14:06:04.321Z,4.13
2018-04-22T14:08:31.262Z,4.73
2018-04-22T14:10:57.874Z,4.50
2018-04-22T14:13:24.727Z,3.93
2018-04-22T14:15:51.348Z,4.60
2018-04-22T14:18:17.971Z,5.10
2018-04-22T14:20:44.951Z,4.70
2018-04-22T14:23:11.535Z,4.80
2018-04-22T14:25:38.177Z,4.83
2018-04-22T14:28:04.799Z,5.30
2018-04-22T14:30:31.935Z,4.10
2018-04-22T14:32:58.560Z,4.83
2018-04-22T14:35:25.229Z,4.40
2018-04-22T14:37:52.200Z,4.57
2018-04-22T14:40:18.789Z,4.37
2018-04-22T14:42:45.448Z,4.50
2018-04-22T14:45:18.191Z,4.43
2018-04-22T14:47:44.822Z,4.47
2018-04-22T14:50:11.444Z,4.53
2018-04-22T14:52:38.073Z,4.80
2018-04-22T14:55:04.671Z,4.83
2018-04-22T14:57:31.299Z,5.40
2018-04-22T14:59:58.271Z,4.73
2018-04-22T15:02:24.872Z,4.97
2018-04-22T15:04:51.786Z,4.60
2018-04-22T15:07:18.587Z,4.30
2018-04-22T15:09:45.208Z,4.40
2018-04-22T15:12:12.836Z,4.70
2018-04-22T15:14:40.589Z,4.80
2018-04-22T15:17:07.200Z,4.73
2018-04-22T15:19:33.915Z,4.60
2018-04-22T15:22:00.499Z,5.23
2018-04-22T15:24:27.463Z,5.87
2018-04-22T15:26:54.057Z,5.60
2018-04-22T15:29:20.998Z,5.60
2018-04-22T15:31:47.624Z,6.20
2018-04-22T15:34:15.267Z,5.80
2018-04-22T15:36:42.703Z,5.40
2018-04-22T15:39:09.320Z,5.13
2018-04-22T15:41:35.926Z,5.10
2018-04-22T15:44:02.928Z,5.70
2018-04-22T15:46:29.598Z,5.20
2018-04-22T15:48:56.511Z,6.20
2018-04-22T15:51:24.864Z,4.73
2018-04-22T15:53:51.514Z,5.13
2018-04-22T15:56:18.538Z,5.20
2018-04-22T15:58:45.325Z,4.37
2018-04-22T16:01:12.277Z,5.27
2018-04-22T16:03:38.906Z,4.90
2018-04-22T16:06:05.574Z,5.93
2018-04-22T16:08:32.464Z,4.93
2018-04-22T16:10:59.078Z,5.33
2018-04-22T16:13:25.820Z,5.47
2018-04-22T16:15:52.672Z,5.20
2018-04-22T16:18:19.354Z,4.80
2018-04-22T16:20:46.074Z,5.10
2018-04-22T16:23:12.788Z,6.97
2018-04-22T16:25:39.784Z,5.73
2018-04-22T16:28:07.841Z,5.50
2018-04-22T16:30:36.608Z,4.43
2018-04-22T16:33:03.192Z,4.73
2018-04-22T16:35:29.944Z,4.23
2018-04-22T16:37:56.587Z,4.70
2018-04-22T16:40:23.294Z,4.20
2018-04-22T16:42:50.096Z,3.90
2018-04-22T16:45:16.795Z,4.00
2018-04-22T16:47:43.410Z,3.97
2018-04-22T16:50:10.001Z,3.90
2018-04-22T16:52:36.591Z,4.50
2018-04-22T16:55:03.409Z,4.27
2018-04-22T16:57:30.232Z,3.93
2018-04-22T16:59:56.834Z,3.83
2018-04-22T17:02:23.440Z,3.87
2018-04-22T17:04:50.177Z,3.80
2018-04-22T17:07:16.916Z,3.80
2018-04-22T17:09:43.521Z,4.73
2018-04-22T17:12:10.141Z,3.63
2018-04-22T17:14:36.788Z,3.70
2018-04-22T17:17:03.552Z,3.40
2018-04-22T17:19:30.193Z,4.50
2018-04-22T17:21:56.850Z,4.00
2018-04-22T17:24:23.485Z,3.33
2018-04-22T17:26:50.081Z,4.30
2018-04-22T17:29:17.387Z,3.80
2018-04-22T17:31:43.976Z,4.00
2018-04-22T17:34:10.607Z,4.40
2018-04-22T17:36:37.583Z,3.77
2018-04-22T17:39:04.257Z,3.63
2018-04-22T17:41:30.857Z,3.77
2018-04-22T17:43:57.467Z,4.53
2018-04-22T17:46:24.129Z,4.20
2018-04-22T17:48:50.742Z,4.40
2018-04-22T17:51:17.335Z,3.40
2018-04-22T17:53:43.963Z,4.30
2018-04-22T17:56:10.597Z,3.50
2018-04-22T17:58:37.217Z,4.70
2018-04-22T18:01:03.829Z,3.83
2018-04-22T18:03:30.464Z,4.47
2018-04-22T18:05:57.088Z,4.10
2018-04-22T18:08:23.674Z,4.47
2018-04-22T18:10:50.346Z,4.60
2018-04-22T18:13:16.964Z,3.70
2018-04-22T18:15:43.858Z,4.43
2018-04-22T18:18:10.642Z,4.67
2018-04-22T18:20:37.580Z,5.00
2018-04-22T18:23:04.207Z,5.10
2018-04-22T18:25:30.830Z,4.10
2018-04-22T18:27:57.492Z,3.90
2018-04-22T18:30:24.101Z,4.07
2018-04-22T18:32:50.748Z,3.83
2018-04-22T18:35:17.350Z,3.77
2018-04-22T18:37:44.270Z,3.90
2018-04-22T18:40:10.976Z,4.13
2018-04-22T18:42:37.634Z,3.93
2018-04-22T18:45:04.272Z,4.67
2018-04-22T18:47:30.909Z,3.40
2018-04-22T18:49:58.316Z,3.77
2018-04-22T18:52:25.831Z,3.37
2018-04-22T18:54:53.636Z,3.80
2018-04-22T18:57:20.222Z,3.90
2018-04-22T18:59:46.889Z,3.40
2018-04-22T19:02:13.497Z,3.90
2018-04-22T19:04:40.124Z,3.53
2018-04-22T19:07:06.769Z,3.80
2018-04-22T19:09:33.454Z,4.70
2018-04-22T19:12:00.259Z,4.03
2018-04-22T19:14:27.087Z,4.40
2018-04-22T19:16:53.694Z,3.70
2018-04-22T19:19:20.310Z,4.07
2018-04-22T19:21:47.175Z,4.30
2018-04-22T19:24:13.806Z,4.17
2018-04-22T19:26:40.398Z,4.00
2018-04-22T19:29:07.074Z,3.93
2018-04-22T19:31:33.765Z,4.13
2018-04-22T19:34:00.357Z,3.80
2018-04-22T19:36:26.995Z,4.27
2018-04-22T19:38:53.590Z,3.77
2018-04-22T19:41:21.505Z,4.30
2018-04-22T19:43:48.123Z,4.10
2018-04-22T19:46:14.791Z,4.20
2018-04-22T19:48:41.443Z,4.37
2018-04-22T19:51:08.069Z,4.10
2018-04-22T19:53:34.774Z,4.20
2018-04-22T19:56:01.781Z,4.23
2018-04-22T19:58:28.760Z,4.10
2018-04-22T20:00:55.422Z,5.23
2018-04-22T20:03:22.581Z,4.77
2018-04-22T20:05:49.391Z,4.10
2018-04-22T20:08:16.049Z,3.80
2018-04-22T20:10:42.718Z,4.37
2018-04-22T20:13:09.322Z,3.77
2018-04-22T20:15:35.954Z,4.57
2018-04-22T20:18:02.701Z,4.00
2018-04-22T20:20:29.468Z,4.00
2018-04-22T20:22:56.229Z,3.97
2018-04-22T20:25:22.876Z,4.03
2018-04-22T20:27:49.537Z,4.10
2018-04-22T20:30:16.153Z,4.23
2018-04-22T20:32:42.818Z,4.20
2018-04-22T20:35:09.452Z,3.97
2018-04-22T20:37:36.772Z,4.40
2018-04-22T20:40:03.511Z,5.20
2018-04-22T20:42:30.216Z,4.50
2018-04-22T20:44:57.129Z,4.23
2018-04-22T20:47:25.615Z,4.50
2018-04-22T20:49:52.607Z,4.40
2018-04-22T20:52:19.215Z,4.23
2018-04-22T20:54:45.815Z,4.30
2018-04-22T20:57:12.440Z,4.90
2018-04-22T20:59:39.219Z,4.13
2018-04-22T21:02:05.841Z,4.50
2018-04-22T21:04:32.477Z,3.90
2018-04-22T21:06:59.133Z,4.50
2018-04-22T21:09:25.744Z,4.67
2018-04-22T21:11:52.411Z,4.90
2018-04-22T21:14:19.143Z,5.00
2018-04-22T21:16:45.870Z,4.63
2018-04-22T21:19:12.524Z,4.13
2018-04-22T21:21:39.186Z,4.93
2018-04-22T21:24:05.798Z,5.20
2018-04-22T21:26:32.462Z,5.20
2018-04-22T21:28:59.091Z,5.80
2018-04-22T21:31:25.795Z,5.83
2018-04-22T21:33:52.443Z,4.97
2018-04-22T21:36:19.048Z,5.03
2018-04-22T21:38:45.652Z,5.50
2018-04-22T21:41:12.470Z,4.90
2018-04-22T21:43:39.188Z,4.93
2018-04-22T21:46:05.858Z,5.30
2018-04-22T21:48:32.452Z,4.53
2018-04-22T21:50:59.088Z,4.80
2018-04-22T21:53:25.832Z,4.77
2018-04-22T21:55:52.420Z,5.23
2018-04-22T21:58:19.031Z,4.70
2018-04-22T22:00:45.663Z,4.40
2018-04-22T22:03:12.475Z,4.73
2018-04-22T22:05:39.114Z,4.70
2018-04-22T22:08:05.760Z,5.30
2018-04-22T22:10:32.360Z,5.17
2018-04-22T22:12:58.971Z,4.27
2018-04-22T22:15:25.571Z,5.00
2018-04-22T22:17:52.210Z,4.40
2018-04-22T22:20:18.808Z,5.37
2018-04-22T22:22:45.445Z,4.90
2018-04-22T22:25:12.063Z,4.80
2018-04-22T22:27:38.669Z,4.57
2018-04-22T22:30:05.334Z,4.30
2018-04-22T22:32:32.445Z,4.87
2018-04-22T22:34:59.022Z,4.83
2018-04-22T22:37:26.350Z,4.60
2018-04-22T22:39:52.938Z,22.30
2018-04-22T22:42:19.576Z,5.97
2018-04-22T22:44:46.183Z,4.90
2018-04-22T22:47:12.826Z,4.33
2018-04-22T22:49:39.449Z,4.97
2018-04-22T22:52:06.210Z,4.90
2018-04-22T22:54:32.863Z,4.80
2018-04-22T22:56:59.461Z,4.90
2018-04-22T22:59:26.105Z,4.80
2018-04-22T23:01:52.867Z,6.10
2018-04-22T23:04:19.473Z,5.43
2018-04-22T23:06:46.054Z,5.37
2018-04-22T23:09:12.679Z,4.83
2018-04-22T23:11:39.280Z,4.53
2018-04-22T23:14:05.911Z,5.57
2018-04-22T23:16:32.498Z,5.17
2018-04-22T23:18:59.126Z,5.63
2018-04-22T23:21:25.721Z,5.30
2018-04-22T23:23:52.330Z,5.60
2018-04-22T23:26:18.920Z,4.73
2018-04-22T23:28:45.525Z,5.50
2018-04-22T23:31:12.123Z,4.73
2018-04-22T23:33:38.713Z,4.50
2018-04-22T23:36:05.346Z,5.40
2018-04-22T23:38:31.927Z,4.70
2018-04-22T23:40:58.581Z,5.17
2018-04-22T23:43:25.190Z,5.33
2018-04-22T23:45:51.819Z,5.07
2018-04-22T23:48:18.385Z,4.60
2018-04-22T23:50:45.007Z,4.87
2018-04-22T23:53:11.609Z,4.90
2018-04-22T23:55:38.257Z,4.87
2018-04-22T23:58:04.857Z,5.03
